createdAt,value
2018-09-26T00:02:28.222Z,99766.94
2018-09-26T00:04:58.735Z,99760.84
2018-09-26T00:07:28.861Z,99767.25
2018-09-26T00:09:59.201Z,99763.79
2018-09-26T00:12:29.335Z,99769.81
2018-09-26T00:14:59.971Z,99769.83
2018-09-26T00:17:30.281Z,99774.67
2018-09-26T00:20:01.351Z,99774.30
2018-09-26T00:22:31.320Z,99765.36
2018-09-26T00:25:01.479Z,99756.46
2018-09-26T00:27:32.088Z,99758.33
2018-09-26T00:30:02.100Z,99760.84
2018-09-26T00:32:32.212Z,99753.16
2018-09-26T00:35:02.552Z,99757.48
2018-09-26T00:37:33.300Z,99760.10
2018-09-26T00:40:03.241Z,99761.25
2018-09-26T00:42:33.219Z,99761.55
2018-09-26T00:45:03.369Z,99764.14
2018-09-26T00:47:33.345Z,99765.80
2018-09-26T00:50:03.506Z,99761.00
2018-09-26T00:52:33.466Z,99765.53
2018-09-26T00:55:03.903Z,99764.59
2018-09-26T00:57:34.964Z,99765.31
2018-09-26T01:00:05.414Z,99769.66
2018-09-26T01:02:35.473Z,99771.68
2018-09-26T01:05:05.559Z,99764.75
2018-09-26T01:07:35.678Z,99768.66
2018-09-26T01:10:06.602Z,99763.92
2018-09-26T01:12:36.486Z,99767.27
2018-09-26T01:15:06.714Z,99771.44
2018-09-26T01:17:36.654Z,99769.18
2018-09-26T01:20:07.205Z,99770.01
2018-09-26T01:22:37.183Z,99757.23
2018-09-26T01:25:08.659Z,99753.02
2018-09-26T01:27:38.521Z,99754.32
2018-09-26T01:30:09.318Z,99758.52
2018-09-26T01:32:39.217Z,99753.70
2018-09-26T01:35:09.686Z,99747.40
2018-09-26T01:37:39.748Z,99749.94
2018-09-26T01:40:09.863Z,99751.98
2018-09-26T01:42:39.700Z,99746.83
2018-09-26T01:45:09.666Z,99746.38
2018-09-26T01:47:39.579Z,99749.91
2018-09-26T01:50:09.924Z,99747.34
2018-09-26T01:52:39.725Z,99746.83
2018-09-26T01:55:09.973Z,99750.19
2018-09-26T01:57:39.954Z,99757.69
2018-09-26T02:00:10.126Z,99757.14
2018-09-26T02:02:39.910Z,99749.30
2018-09-26T02:05:09.971Z,99753.59
2018-09-26T02:07:40.542Z,99745.91
2018-09-26T02:10:10.739Z,99742.09
2018-09-26T02:12:41.454Z,99741.63
2018-09-26T02:15:11.669Z,99733.97
2018-09-26T02:17:41.483Z,99729.69
2018-09-26T02:20:11.511Z,99735.52
2018-09-26T02:22:41.462Z,99735.01
2018-09-26T02:25:11.996Z,99733.20
2018-09-26T02:27:42.257Z,99725.55
2018-09-26T02:30:12.709Z,99726.40
2018-09-26T02:32:42.851Z,99722.98
2018-09-26T02:35:13.068Z,99722.92
2018-09-26T02:37:42.775Z,99725.58
2018-09-26T02:40:12.737Z,99723.56
2018-09-26T02:42:42.718Z,99731.25
2018-09-26T02:45:13.179Z,99732.45
2018-09-26T02:47:42.996Z,99733.11
2018-09-26T02:50:13.494Z,99730.09
2018-09-26T02:52:43.381Z,99737.02
2018-09-26T02:55:13.564Z,99727.26
2018-09-26T02:57:43.570Z,99724.23
2018-09-26T03:00:13.458Z,99734.86
2018-09-26T03:02:43.412Z,99734.80
2018-09-26T03:05:13.927Z,99730.79
2018-09-26T03:07:43.634Z,99725.23
2018-09-26T03:10:13.474Z,99726.45
2018-09-26T03:12:43.503Z,99728.22
2018-09-26T03:15:13.562Z,99734.27
2018-09-26T03:17:44.674Z,99737.20
2018-09-26T03:20:15.572Z,99727.73
2018-09-26T03:22:45.611Z,99732.50
2018-09-26T03:25:15.703Z,99728.72
2018-09-26T03:27:45.549Z,99728.84
2018-09-26T03:30:15.569Z,99724.33
2018-09-26T03:32:52.767Z,99722.48
2018-09-26T03:35:24.529Z,99718.35
2018-09-26T03:37:59.608Z,99713.31
2018-09-26T03:40:33.973Z,99721.03
2018-09-26T03:43:03.860Z,99711.65
2018-09-26T03:45:33.641Z,99709.94
2018-09-26T03:48:03.701Z,99708.61
2018-09-26T03:50:33.784Z,99703.45
2018-09-26T03:53:04.159Z,99699.62
2018-09-26T03:55:34.258Z,99704.73
2018-09-26T03:58:04.318Z,99707.69
2018-09-26T04:00:34.337Z,99702.56
2018-09-26T04:03:04.177Z,99705.90
2018-09-26T04:05:34.484Z,99712.59
2018-09-26T04:08:04.413Z,99720.66
2018-09-26T04:10:34.276Z,99717.66
2018-09-26T04:13:04.391Z,99716.72
2018-09-26T04:15:38.432Z,99723.02
2018-09-26T04:18:08.916Z,99726.37
2018-09-26T04:20:39.575Z,99722.98
2018-09-26T04:23:09.625Z,99725.09
2018-09-26T04:25:39.761Z,99734.06
2018-09-26T04:28:10.491Z,99733.11
2018-09-26T04:30:40.597Z,99732.69
2018-09-26T04:33:11.137Z,99739.46
2018-09-26T04:35:40.974Z,99737.33
2018-09-26T04:38:11.632Z,99738.97
2018-09-26T04:40:41.759Z,99738.41
2018-09-26T04:43:11.868Z,99737.53
2018-09-26T04:45:41.991Z,99743.41
2018-09-26T04:48:11.807Z,99751.86
2018-09-26T04:50:41.832Z,99754.58
2018-09-26T04:53:11.844Z,99756.13
2018-09-26T04:55:42.037Z,99762.39
2018-09-26T04:58:12.151Z,99763.86
2018-09-26T05:00:42.442Z,99766.02
2018-09-26T05:03:12.307Z,99769.45
2018-09-26T05:05:42.477Z,99771.42
2018-09-26T05:08:12.697Z,99772.62
2018-09-26T05:10:42.769Z,99770.02
2018-09-26T05:13:12.840Z,99772.89
2018-09-26T05:15:43.016Z,99774.10
2018-09-26T05:18:13.027Z,99774.04
2018-09-26T05:20:43.151Z,99770.16
2018-09-26T05:23:13.048Z,99774.01
2018-09-26T05:25:42.857Z,99773.58
2018-09-26T05:28:12.716Z,99776.23
2018-09-26T05:30:43.036Z,99781.98
2018-09-26T05:33:12.872Z,99780.98
2018-09-26T05:35:42.896Z,99782.91
2018-09-26T05:38:12.815Z,99777.50
2018-09-26T05:40:42.983Z,99777.65
2018-09-26T05:43:13.218Z,99783.35
2018-09-26T05:45:44.211Z,99785.17
2018-09-26T05:48:14.146Z,99788.34
2018-09-26T05:50:44.345Z,99793.69
2018-09-26T05:53:14.485Z,99791.31
2018-09-26T05:55:45.447Z,99792.27
2018-09-26T05:58:15.549Z,99789.38
2018-09-26T06:00:45.629Z,99786.94
2018-09-26T06:03:16.495Z,99795.65
2018-09-26T06:06:00.518Z,99790.63
2018-09-26T06:08:36.258Z,99788.61
2018-09-26T06:11:07.261Z,99790.41
2018-09-26T06:13:37.230Z,99789.64
2018-09-26T06:16:07.540Z,99785.98
2018-09-26T06:21:59.519Z,99777.42
2018-09-26T06:24:42.516Z,99772.87
2018-09-26T06:28:21.723Z,99764.44
2018-09-26T06:30:56.062Z,99775.78
2018-09-26T06:33:27.324Z,99769.50
2018-09-26T06:36:01.440Z,99767.92
2018-09-26T06:38:49.181Z,99775.34
2018-09-26T06:41:19.520Z,99772.91
2018-09-26T06:43:50.868Z,99776.00
2018-09-26T06:46:21.962Z,99776.06
2018-09-26T06:48:54.061Z,99779.16
2018-09-26T06:51:25.200Z,99772.37
2018-09-26T06:54:07.764Z,99771.56
2018-09-26T06:56:38.064Z,99774.63
2018-09-26T06:59:11.472Z,99775.11
2018-09-26T07:01:41.907Z,99777.30
2018-09-26T07:04:20.844Z,99784.65
2018-09-26T07:06:55.684Z,99789.81
2018-09-26T07:09:29.768Z,99791.13
2018-09-26T07:12:02.310Z,99797.14
2018-09-26T07:14:42.305Z,99798.45
2018-09-26T07:17:13.124Z,99793.23
2018-09-26T07:32:54.101Z,99795.54
2018-09-26T07:35:46.633Z,99792.80
2018-09-26T07:38:35.149Z,99790.09
2018-09-26T07:50:09.034Z,99776.53
2018-09-26T07:52:56.243Z,99763.00
2018-09-26T08:00:31.893Z,99751.06
2018-09-26T08:06:00.592Z,99736.91
2018-09-26T08:08:41.121Z,99731.50
2018-09-26T08:20:16.174Z,99736.81
2018-09-26T08:22:46.898Z,99729.33
2018-09-26T08:25:59.913Z,99732.29
2018-09-26T08:31:57.185Z,99728.94
2018-09-26T08:34:47.090Z,99730.52
2018-09-26T08:43:28.157Z,99724.16
2018-09-26T08:46:39.953Z,99720.90
2018-09-26T08:49:18.661Z,99717.59
2018-09-26T08:54:43.878Z,99704.16
2018-09-26T08:57:14.813Z,99700.12
2018-09-26T08:59:45.155Z,99695.55
2018-09-26T09:02:15.514Z,99694.23
2018-09-26T09:04:46.333Z,99682.67
2018-09-26T09:07:18.591Z,99685.53
2018-09-26T09:09:48.789Z,99682.80
2018-09-26T09:12:19.907Z,99686.70
2018-09-26T09:14:50.161Z,99689.03
2018-09-26T09:17:21.332Z,99685.31
2018-09-26T09:19:53.363Z,99678.91
2018-09-26T09:22:23.640Z,99677.80
2018-09-26T09:24:56.199Z,99676.48
2018-09-26T09:27:26.694Z,99677.39
2018-09-26T09:29:57.854Z,99674.92
2018-09-26T09:32:37.211Z,99671.50
2018-09-26T09:35:07.595Z,99672.69
2018-09-26T09:37:37.921Z,99668.13
2018-09-26T09:40:08.501Z,99666.81
2018-09-26T09:42:39.054Z,99664.80
2018-09-26T09:45:09.404Z,99679.03
2018-09-26T09:47:39.871Z,99673.66
2018-09-26T09:50:11.520Z,99672.89
2018-09-26T09:52:42.701Z,99666.63
2018-09-26T09:55:12.806Z,99662.36
2018-09-26T09:57:45.079Z,99662.07
2018-09-26T10:00:16.500Z,99663.79
2018-09-26T10:02:52.091Z,99658.77
2018-09-26T10:05:22.759Z,99663.34
2018-09-26T10:07:53.083Z,99658.20
2018-09-26T10:10:24.466Z,99652.13
2018-09-26T10:12:56.816Z,99649.80
2018-09-26T10:15:28.052Z,99645.39
2018-09-26T10:17:58.252Z,99634.06
2018-09-26T10:20:29.037Z,99629.81
2018-09-26T10:23:21.967Z,99629.19
2018-09-26T10:28:40.169Z,99623.63
2018-09-26T10:31:14.222Z,99626.48
2018-09-26T10:33:44.580Z,99620.83
2018-09-26T10:36:16.651Z,99603.03
2018-09-26T10:38:46.925Z,99595.72
2018-09-26T10:41:17.932Z,99594.90
2018-09-26T10:46:50.578Z,99580.70
2018-09-26T10:49:22.960Z,99572.88
2018-09-26T10:55:03.837Z,99553.11
2018-09-26T10:57:34.037Z,99551.03
2018-09-26T11:00:44.081Z,99553.30
2018-09-26T11:03:26.619Z,99549.14
2018-09-26T11:06:30.022Z,99543.98
2018-09-26T11:09:08.201Z,99532.37
2018-09-26T11:29:40.046Z,99516.15
2018-09-26T11:32:10.764Z,99521.18
2018-09-26T11:34:45.959Z,99519.55
2018-09-26T11:37:20.220Z,99509.89
2018-09-26T11:39:50.890Z,99506.02
2018-09-26T11:42:21.298Z,99501.45
2018-09-26T11:44:53.165Z,99501.27
2018-09-26T11:47:23.591Z,99493.27
2018-09-26T11:49:54.523Z,99489.66
2018-09-26T11:52:33.847Z,99474.77
2018-09-26T11:55:05.883Z,99467.42
2018-09-26T11:57:36.310Z,99465.89
2018-09-26T12:00:13.943Z,99458.95
2018-09-26T12:02:45.336Z,99458.56
2018-09-26T12:07:58.452Z,99436.52
2018-09-26T12:10:29.852Z,99433.93
2018-09-26T12:13:02.671Z,99429.16
2018-09-26T12:15:33.931Z,99410.38
2018-09-26T12:18:04.389Z,99408.59
2018-09-26T12:20:34.915Z,99395.47
2018-09-26T12:23:05.552Z,99391.22
2018-09-26T12:25:39.534Z,99391.61
2018-09-26T12:28:10.629Z,99388.00
2018-09-26T12:30:42.143Z,99380.70
2018-09-26T12:33:12.600Z,99374.20
2018-09-26T12:35:42.897Z,99367.82
2018-09-26T12:38:13.066Z,99369.14
2018-09-26T12:40:43.389Z,99350.55
2018-09-26T12:43:13.881Z,99344.52
2018-09-26T12:45:44.002Z,99339.77
2018-09-26T12:48:14.505Z,99344.97
2018-09-26T12:53:25.437Z,99340.21
2018-09-26T12:55:55.714Z,99341.25
2018-09-26T12:58:26.342Z,99335.32
2018-09-26T13:00:57.475Z,99337.39
2018-09-26T13:03:59.581Z,99327.04
2018-09-26T13:06:40.931Z,99319.12
2018-09-26T13:28:00.158Z,99284.06
2018-09-26T13:36:10.116Z,99279.33
2018-09-26T13:58:53.707Z,99272.99
2018-09-26T14:01:45.635Z,99267.52
2018-09-26T14:10:57.653Z,99256.03
2018-09-26T14:16:33.580Z,99248.40
2018-09-26T14:19:04.384Z,99244.45
2018-09-26T14:21:36.422Z,99249.23
2018-09-26T14:24:10.422Z,99252.14
2018-09-26T14:26:40.664Z,99247.20
2018-09-26T14:29:12.256Z,99238.45
2018-09-26T14:31:42.497Z,99232.92
2018-09-26T14:34:13.064Z,99225.84
2018-09-26T14:36:43.815Z,99228.88
2018-09-26T14:39:14.803Z,99221.64
2018-09-26T14:41:44.859Z,99215.13
2018-09-26T14:44:15.025Z,99223.25
2018-09-26T14:46:45.350Z,99221.52
2018-09-26T14:49:17.450Z,99213.14
2018-09-26T14:51:47.951Z,99218.69
2018-09-26T14:54:18.651Z,99205.31
2018-09-26T14:56:49.054Z,99209.94
2018-09-26T14:59:19.509Z,99206.29
2018-09-26T15:01:49.971Z,99197.24
2018-09-26T15:04:20.689Z,99188.27
2018-09-26T15:06:50.831Z,99187.73
2018-09-26T15:09:21.271Z,99187.81
2018-09-26T15:11:51.859Z,99180.95
2018-09-26T15:14:23.594Z,99179.46
2018-09-26T15:16:53.730Z,99180.95
2018-09-26T15:19:23.908Z,99177.59
2018-09-26T15:21:54.689Z,99179.95
2018-09-26T15:24:25.013Z,99181.53
2018-09-26T15:26:56.828Z,99175.60
2018-09-26T15:29:27.009Z,99179.76
2018-09-26T15:32:04.017Z,99181.05
2018-09-26T16:14:47.103Z,99193.69
2018-09-26T16:20:09.635Z,99195.39
2018-09-26T16:22:47.196Z,99199.05
2018-09-26T16:25:23.273Z,99200.14
2018-09-26T16:27:59.105Z,99204.80
2018-09-26T16:30:31.175Z,99201.55
2018-09-26T16:33:02.405Z,99205.63
2018-09-26T16:35:33.882Z,99205.55
2018-09-26T16:38:04.388Z,99209.06
2018-09-26T16:40:35.686Z,99215.67
2018-09-26T16:43:06.746Z,99213.60
2018-09-26T17:00:15.553Z,99244.84
2018-09-26T17:02:49.156Z,99247.91
2018-09-26T17:05:19.435Z,99257.64
2018-09-26T17:11:26.020Z,99263.23
2018-09-26T17:13:57.689Z,99255.69
2018-09-26T17:16:28.732Z,99254.61
2018-09-26T17:18:59.138Z,99258.69
2018-09-26T17:21:30.911Z,99262.31
2018-09-26T17:24:01.451Z,99261.09
2018-09-26T17:26:31.733Z,99264.34
2018-09-26T17:29:04.580Z,99259.38
2018-09-26T17:31:35.104Z,99265.95
2018-09-26T17:34:05.380Z,99260.84
2018-09-26T17:36:38.413Z,99261.88
2018-09-26T17:39:10.324Z,99265.43
2018-09-26T17:41:46.680Z,99262.49
2018-09-26T17:44:17.065Z,99269.03
2018-09-26T17:47:02.353Z,99268.70
2018-09-26T17:49:32.596Z,99271.95
2018-09-26T17:52:03.735Z,99270.88
2018-09-26T17:54:37.637Z,99267.13
2018-09-26T17:57:08.057Z,99268.94
2018-09-26T17:59:38.407Z,99272.07
2018-09-26T18:02:09.332Z,99267.73
2018-09-26T18:04:39.877Z,99258.38
2018-09-26T18:07:10.131Z,99256.70
2018-09-26T18:09:50.914Z,99260.25
2018-09-26T18:15:05.273Z,99257.11
2018-09-26T18:17:36.591Z,99253.70
2018-09-26T18:20:06.749Z,99251.10
2018-09-26T18:22:42.217Z,99252.83
2018-09-26T18:25:16.976Z,99246.47
2018-09-26T18:27:47.116Z,99242.23
2018-09-26T18:30:17.496Z,99241.38
2018-09-26T18:32:47.872Z,99229.34
2018-09-26T18:35:18.962Z,99229.02
2018-09-26T18:37:49.383Z,99229.09
2018-09-26T18:40:19.693Z,99235.98
2018-09-26T18:42:50.330Z,99233.88
2018-09-26T18:45:21.467Z,99235.73
2018-09-26T18:47:52.741Z,99234.91
2018-09-26T18:50:23.708Z,99234.09
2018-09-26T18:52:53.854Z,99237.51
2018-09-26T18:55:27.019Z,99240.58
2018-09-26T18:57:57.654Z,99243.22
2018-09-26T19:03:16.870Z,99240.87
2018-09-26T19:05:47.290Z,99245.24
2018-09-26T19:08:20.902Z,99243.16
2018-09-26T19:10:52.819Z,99238.08
2018-09-26T19:13:24.318Z,99242.00
2018-09-26T19:15:58.174Z,99239.04
2018-09-26T19:18:30.324Z,99230.86
2018-09-26T19:21:01.837Z,99229.57
2018-09-26T19:23:31.832Z,99230.94
2018-09-26T19:26:02.560Z,99238.30
2018-09-26T19:28:32.676Z,99243.08
2018-09-26T19:31:02.909Z,99240.53
2018-09-26T19:33:33.615Z,99244.88
2018-09-26T19:36:05.859Z,99240.64
2018-09-26T19:38:36.190Z,99238.92
2018-09-26T19:41:06.696Z,99235.50
2018-09-26T19:43:38.436Z,99222.59
2018-09-26T19:46:12.857Z,99214.82
2018-09-26T19:48:50.853Z,99218.71
2018-09-26T19:51:22.496Z,99220.81
2018-09-26T19:53:56.649Z,99218.58
2018-09-26T19:56:28.166Z,99217.72
2018-09-26T19:58:59.512Z,99221.94
2018-09-26T20:01:31.142Z,99215.05
2018-09-26T20:04:01.370Z,99216.75
2018-09-26T20:06:31.589Z,99218.89
2018-09-26T20:11:52.374Z,99213.30
2018-09-26T20:14:23.570Z,99214.16
2018-09-26T20:16:53.762Z,99214.61
2018-09-26T20:19:24.097Z,99215.07
2018-09-26T20:21:54.288Z,99213.38
2018-09-26T20:24:24.384Z,99210.80
2018-09-26T20:26:54.816Z,99209.59
2018-09-26T20:29:25.152Z,99211.30
2018-09-26T20:31:55.802Z,99201.83
2018-09-26T20:34:26.741Z,99196.20
2018-09-26T20:36:57.016Z,99200.94
2018-09-26T20:39:26.999Z,99200.95
2018-09-26T20:41:57.577Z,99191.94
2018-09-26T20:44:27.868Z,99190.20
2018-09-26T20:46:57.988Z,99190.63
2018-09-26T20:49:28.209Z,99185.92
2018-09-26T20:51:58.997Z,99184.20
2018-09-26T20:54:29.014Z,99176.88
2018-09-26T20:56:59.171Z,99176.84
2018-09-26T20:59:29.991Z,99179.40
2018-09-26T21:02:00.357Z,99182.80
2018-09-26T21:04:30.410Z,99182.34
2018-09-26T21:07:00.658Z,99180.64
2018-09-26T21:09:30.660Z,99178.46
2018-09-26T21:12:00.881Z,99178.06
2018-09-26T21:14:30.793Z,99178.50
2018-09-26T21:17:00.807Z,99175.08
2018-09-26T21:19:30.752Z,99172.88
2018-09-26T21:22:01.328Z,99180.99
2018-09-26T21:24:31.380Z,99182.27
2018-09-26T21:27:01.773Z,99179.74
2018-09-26T21:29:32.033Z,99177.63
2018-09-26T21:32:02.211Z,99180.22
2018-09-26T21:34:32.197Z,99178.52
2018-09-26T21:37:02.681Z,99184.14
2018-09-26T21:39:32.674Z,99183.73
2018-09-26T21:42:02.896Z,99187.16
2018-09-26T21:44:33.281Z,99191.48
2018-09-26T21:47:03.464Z,99188.04
2018-09-26T21:49:34.272Z,99185.92
2018-09-26T21:52:04.820Z,99186.37
2018-09-26T21:54:34.842Z,99188.08
2018-09-26T21:57:05.627Z,99185.10
2018-09-26T21:59:35.672Z,99181.28
2018-09-26T22:02:05.821Z,99183.48
2018-09-26T22:04:36.279Z,99191.28
2018-09-26T22:07:06.418Z,99194.34
2018-09-26T22:09:36.597Z,99194.84
2018-09-26T22:12:06.674Z,99192.70
2018-09-26T22:14:36.740Z,99193.59
2018-09-26T22:17:06.799Z,99194.09
2018-09-26T22:19:37.543Z,99193.30
2018-09-26T22:22:07.567Z,99202.83
2018-09-26T22:24:37.653Z,99197.70
2018-09-26T22:27:07.791Z,99197.33
2018-09-26T22:29:37.788Z,99195.63
2018-09-26T22:32:08.342Z,99200.39
2018-09-26T22:34:39.114Z,99199.97
2018-09-26T22:37:09.506Z,99196.98
2018-09-26T22:39:39.712Z,99188.83
2018-09-26T22:42:09.788Z,99193.15
2018-09-26T22:44:39.698Z,99185.00
2018-09-26T22:47:09.768Z,99179.90
2018-09-26T22:49:39.751Z,99177.73
2018-09-26T22:52:10.150Z,99186.75
2018-09-26T22:54:40.116Z,99182.88
2018-09-26T22:57:10.160Z,99179.02
2018-09-26T22:59:40.055Z,99176.44
2018-09-26T23:02:10.228Z,99179.02
2018-09-26T23:04:40.120Z,99182.08
2018-09-26T23:07:10.248Z,99175.25
2018-09-26T23:09:40.351Z,99167.53
2018-09-26T23:12:10.530Z,99163.72
2018-09-26T23:14:40.418Z,99160.27
2018-09-26T23:17:10.562Z,99158.14
2018-09-26T23:19:40.473Z,99156.83
2018-09-26T23:22:10.521Z,99157.66
2018-09-26T23:24:40.448Z,99163.22
2018-09-26T23:27:10.668Z,99166.67
2018-09-26T23:29:40.656Z,99161.09
2018-09-26T23:32:10.888Z,99158.95
2018-09-26T23:34:40.991Z,99155.09
2018-09-26T23:37:11.175Z,99160.22
2018-09-26T23:39:40.963Z,99157.17
2018-09-26T23:42:10.891Z,99154.15
2018-09-26T23:44:40.974Z,99147.23
2018-09-26T23:47:11.228Z,99134.75
2018-09-26T23:49:41.284Z,99137.73
2018-09-26T23:52:11.461Z,99139.93
2018-09-26T23:54:41.471Z,99129.63
2018-09-26T23:57:11.545Z,99125.72
2018-09-26T23:59:41.446Z,99122.56
